sensor_id;sensor_type;location;lat;lon;timestamp;pressure;altitude;pressure_sealevel;temperature;humidity
19286;BME280;9776;50.798;6.430;2023-05-18T00:01:26;101244.06;;;10.97;51.85
19286;BME280;9776;50.798;6.430;2023-05-18T00:03:55;101241.13;;;10.91;52.00
19286;BME280;9776;50.798;6.430;2023-05-18T00:06:22;101233.56;;;10.86;52.02
19286;BME280;9776;50.798;6.430;2023-05-18T00:08:51;101236.47;;;10.83;52.06
19286;BME280;9776;50.798;6.430;2023-05-18T00:11:17;101236.59;;;10.81;52.10
19286;BME280;9776;50.798;6.430;2023-05-18T00:13:44;101231.13;;;10.73;52.31
19286;BME280;9776;50.798;6.430;2023-05-18T00:16:11;101239.56;;;10.67;52.29
19286;BME280;9776;50.798;6.430;2023-05-18T00:18:40;101235.25;;;10.66;52.29
19286;BME280;9776;50.798;6.430;2023-05-18T00:21:06;101243.03;;;10.68;52.36
19286;BME280;9776;50.798;6.430;2023-05-18T00:23:34;101245.91;;;10.65;52.49
19286;BME280;9776;50.798;6.430;2023-05-18T00:26:05;101240.91;;;10.62;52.54
19286;BME280;9776;50.798;6.430;2023-05-18T00:28:31;101249.78;;;10.61;52.63
19286;BME280;9776;50.798;6.430;2023-05-18T00:30:58;101252.44;;;10.61;52.63
19286;BME280;9776;50.798;6.430;2023-05-18T00:33:25;101246.56;;;10.57;52.70
19286;BME280;9776;50.798;6.430;2023-05-18T00:35:52;101252.53;;;10.59;52.55
19286;BME280;9776;50.798;6.430;2023-05-18T00:38:21;101250.28;;;10.55;52.75
19286;BME280;9776;50.798;6.430;2023-05-18T00:40:48;101246.94;;;10.53;52.76
19286;BME280;9776;50.798;6.430;2023-05-18T00:43:16;101244.09;;;10.45;52.93
19286;BME280;9776;50.798;6.430;2023-05-18T00:45:43;101243.38;;;10.43;52.86
19286;BME280;9776;50.798;6.430;2023-05-18T00:48:09;101241.72;;;10.42;52.87
19286;BME280;9776;50.798;6.430;2023-05-18T00:50:36;101238.25;;;10.41;52.70
19286;BME280;9776;50.798;6.430;2023-05-18T00:53:03;101239.34;;;10.39;52.91
19286;BME280;9776;50.798;6.430;2023-05-18T00:55:30;101235.41;;;10.33;52.94
19286;BME280;9776;50.798;6.430;2023-05-18T00:57:57;101236.72;;;10.27;53.23
19286;BME280;9776;50.798;6.430;2023-05-18T01:00:28;101238.19;;;10.20;53.12
19286;BME280;9776;50.798;6.430;2023-05-18T01:02:54;101239.53;;;10.15;53.28
19286;BME280;9776;50.798;6.430;2023-05-18T01:05:21;101238.19;;;10.09;53.25
19286;BME280;9776;50.798;6.430;2023-05-18T01:07:48;101235.56;;;10.09;53.41
19286;BME280;9776;50.798;6.430;2023-05-18T01:10:17;101235.91;;;10.05;53.46
19286;BME280;9776;50.798;6.430;2023-05-18T01:12:51;101226.22;;;10.05;53.63
19286;BME280;9776;50.798;6.430;2023-05-18T01:15:22;101228.84;;;10.05;53.56
19286;BME280;9776;50.798;6.430;2023-05-18T01:17:58;101234.25;;;10.04;53.56
19286;BME280;9776;50.798;6.430;2023-05-18T01:20:31;101237.25;;;9.99;53.54
19286;BME280;9776;50.798;6.430;2023-05-18T01:23:16;101238.94;;;10.00;53.56
19286;BME280;9776;50.798;6.430;2023-05-18T01:26:01;101225.53;;;9.92;53.73
19286;BME280;9776;50.798;6.430;2023-05-18T01:28:32;101234.78;;;9.87;53.86
19286;BME280;9776;50.798;6.430;2023-05-18T01:30:59;101239.44;;;9.83;53.89
19286;BME280;9776;50.798;6.430;2023-05-18T01:33:25;101232.72;;;9.79;53.94
19286;BME280;9776;50.798;6.430;2023-05-18T01:35:52;101241.13;;;9.73;53.80
19286;BME280;9776;50.798;6.430;2023-05-18T01:38:21;101237.44;;;9.64;54.10
19286;BME280;9776;50.798;6.430;2023-05-18T01:40:55;101236.00;;;9.60;54.15
19286;BME280;9776;50.798;6.430;2023-05-18T01:43:30;101234.19;;;9.50;54.36
19286;BME280;9776;50.798;6.430;2023-05-18T01:46:03;101235.41;;;9.46;54.38
19286;BME280;9776;50.798;6.430;2023-05-18T01:48:32;101234.09;;;9.40;54.53
19286;BME280;9776;50.798;6.430;2023-05-18T01:51:01;101236.59;;;9.42;54.60
19286;BME280;9776;50.798;6.430;2023-05-18T01:53:32;101234.91;;;9.41;54.66
19286;BME280;9776;50.798;6.430;2023-05-18T01:56:06;101232.19;;;9.42;54.74
19286;BME280;9776;50.798;6.430;2023-05-18T01:58:37;101229.31;;;9.34;55.19
19286;BME280;9776;50.798;6.430;2023-05-18T02:01:04;101231.91;;;9.12;55.56
19286;BME280;9776;50.798;6.430;2023-05-18T02:03:31;101236.84;;;9.17;55.58
19286;BME280;9776;50.798;6.430;2023-05-18T02:05:58;101236.59;;;9.20;55.51
19286;BME280;9776;50.798;6.430;2023-05-18T02:08:25;101232.88;;;9.22;55.35
19286;BME280;9776;50.798;6.430;2023-05-18T02:10:52;101231.81;;;9.25;55.50
19286;BME280;9776;50.798;6.430;2023-05-18T02:13:19;101229.88;;;9.27;55.42
19286;BME280;9776;50.798;6.430;2023-05-18T02:15:47;101239.47;;;9.28;55.51
19286;BME280;9776;50.798;6.430;2023-05-18T02:18:14;101233.97;;;9.31;55.53
19286;BME280;9776;50.798;6.430;2023-05-18T02:20:40;101232.41;;;9.28;55.34
19286;BME280;9776;50.798;6.430;2023-05-18T02:23:07;101236.47;;;9.21;55.47
19286;BME280;9776;50.798;6.430;2023-05-18T02:25:34;101237.53;;;9.19;55.61
19286;BME280;9776;50.798;6.430;2023-05-18T02:28:02;101242.09;;;9.17;55.43
19286;BME280;9776;50.798;6.430;2023-05-18T02:30:28;101247.22;;;9.07;55.76
19286;BME280;9776;50.798;6.430;2023-05-18T02:32:58;101247.13;;;9.08;55.64
19286;BME280;9776;50.798;6.430;2023-05-18T02:35:25;101241.84;;;9.08;55.70
19286;BME280;9776;50.798;6.430;2023-05-18T02:37:52;101242.72;;;9.09;55.53
19286;BME280;9776;50.798;6.430;2023-05-18T02:40:20;101246.38;;;9.06;55.69
19286;BME280;9776;50.798;6.430;2023-05-18T02:42:47;101241.25;;;9.05;55.49
19286;BME280;9776;50.798;6.430;2023-05-18T02:45:13;101240.31;;;9.06;55.47
19286;BME280;9776;50.798;6.430;2023-05-18T02:47:40;101244.22;;;9.00;55.55
19286;BME280;9776;50.798;6.430;2023-05-18T02:50:10;101256.06;;;8.95;55.86
19286;BME280;9776;50.798;6.430;2023-05-18T02:52:37;101255.81;;;8.98;55.79
19286;BME280;9776;50.798;6.430;2023-05-18T02:55:06;101254.03;;;8.98;55.59
19286;BME280;9776;50.798;6.430;2023-05-18T02:57:33;101246.03;;;9.00;55.64
19286;BME280;9776;50.798;6.430;2023-05-18T03:00:01;101242.66;;;8.98;55.59
19286;BME280;9776;50.798;6.430;2023-05-18T03:02:34;101249.84;;;8.96;55.48
19286;BME280;9776;50.798;6.430;2023-05-18T03:05:03;101245.03;;;8.90;55.54
19286;BME280;9776;50.798;6.430;2023-05-18T03:07:32;101245.41;;;8.85;55.62
19286;BME280;9776;50.798;6.430;2023-05-18T03:10:01;101243.94;;;8.81;55.67
19286;BME280;9776;50.798;6.430;2023-05-18T03:12:29;101250.16;;;8.80;55.71
19286;BME280;9776;50.798;6.430;2023-05-18T03:14:56;101259.88;;;8.80;55.69
19286;BME280;9776;50.798;6.430;2023-05-18T03:17:23;101262.59;;;8.78;55.66
19286;BME280;9776;50.798;6.430;2023-05-18T03:19:50;101255.91;;;8.74;55.71
19286;BME280;9776;50.798;6.430;2023-05-18T03:22:19;101252.53;;;8.72;55.71
19286;BME280;9776;50.798;6.430;2023-05-18T03:24:48;101251.91;;;8.69;55.79
19286;BME280;9776;50.798;6.430;2023-05-18T03:27:15;101252.16;;;8.66;55.62
19286;BME280;9776;50.798;6.430;2023-05-18T03:29:43;101255.13;;;8.61;55.60
19286;BME280;9776;50.798;6.430;2023-05-18T03:32:10;101257.28;;;8.56;55.79
19286;BME280;9776;50.798;6.430;2023-05-18T03:34:38;101263.59;;;8.53;55.83
19286;BME280;9776;50.798;6.430;2023-05-18T03:37:06;101252.47;;;8.50;56.00
19286;BME280;9776;50.798;6.430;2023-05-18T03:39:35;101250.19;;;8.45;56.15
19286;BME280;9776;50.798;6.430;2023-05-18T03:42:03;101256.59;;;8.41;56.26
19286;BME280;9776;50.798;6.430;2023-05-18T03:44:30;101257.81;;;8.25;56.74
19286;BME280;9776;50.798;6.430;2023-05-18T03:46:58;101257.81;;;8.25;56.80
19286;BME280;9776;50.798;6.430;2023-05-18T03:49:25;101262.88;;;8.28;56.62
19286;BME280;9776;50.798;6.430;2023-05-18T03:51:54;101266.13;;;8.31;56.59
19286;BME280;9776;50.798;6.430;2023-05-18T03:54:21;101266.25;;;8.30;56.64
19286;BME280;9776;50.798;6.430;2023-05-18T03:56:49;101264.53;;;8.29;56.89
19286;BME280;9776;50.798;6.430;2023-05-18T03:59:17;101264.16;;;8.22;57.02
19286;BME280;9776;50.798;6.430;2023-05-18T04:01:43;101261.00;;;8.17;57.14
19286;BME280;9776;50.798;6.430;2023-05-18T04:04:10;101264.03;;;8.24;57.08
19286;BME280;9776;50.798;6.430;2023-05-18T04:06:42;101259.28;;;8.29;57.09
19286;BME280;9776;50.798;6.430;2023-05-18T04:09:11;101259.69;;;8.35;56.91
19286;BME280;9776;50.798;6.430;2023-05-18T04:11:39;101262.81;;;8.40;56.86
19286;BME280;9776;50.798;6.430;2023-05-18T04:14:10;101268.06;;;8.40;56.86
19286;BME280;9776;50.798;6.430;2023-05-18T04:16:39;101260.53;;;8.36;56.83
19286;BME280;9776;50.798;6.430;2023-05-18T04:19:07;101265.56;;;8.39;56.86
19286;BME280;9776;50.798;6.430;2023-05-18T04:21:34;101269.75;;;8.41;56.96
19286;BME280;9776;50.798;6.430;2023-05-18T04:24:02;101259.00;;;8.44;56.89
19286;BME280;9776;50.798;6.430;2023-05-18T04:26:30;101265.84;;;8.47;56.88
19286;BME280;9776;50.798;6.430;2023-05-18T04:28:56;101268.97;;;8.52;56.88
19286;BME280;9776;50.798;6.430;2023-05-18T04:31:24;101270.44;;;8.56;56.83
19286;BME280;9776;50.798;6.430;2023-05-18T04:33:53;101268.50;;;8.58;56.96
19286;BME280;9776;50.798;6.430;2023-05-18T04:36:22;101280.94;;;8.56;56.97
19286;BME280;9776;50.798;6.430;2023-05-18T04:38:50;101276.41;;;8.58;57.16
19286;BME280;9776;50.798;6.430;2023-05-18T04:41:17;101284.75;;;8.52;57.29
19286;BME280;9776;50.798;6.430;2023-05-18T04:43:46;101283.34;;;8.59;57.23
19286;BME280;9776;50.798;6.430;2023-05-18T04:46:14;101288.84;;;8.56;57.46
19286;BME280;9776;50.798;6.430;2023-05-18T04:48:42;101289.59;;;8.69;57.41
19286;BME280;9776;50.798;6.430;2023-05-18T04:51:10;101292.03;;;8.83;57.26
19286;BME280;9776;50.798;6.430;2023-05-18T04:53:37;101291.59;;;8.89;57.34
19286;BME280;9776;50.798;6.430;2023-05-18T04:56:05;101287.88;;;8.92;57.40
19286;BME280;9776;50.798;6.430;2023-05-18T04:58:32;101287.06;;;8.91;57.66
19286;BME280;9776;50.798;6.430;2023-05-18T05:00:59;101289.81;;;8.90;57.83
19286;BME280;9776;50.798;6.430;2023-05-18T05:03:26;101286.22;;;8.91;57.91
19286;BME280;9776;50.798;6.430;2023-05-18T05:05:53;101289.34;;;8.96;58.06
19286;BME280;9776;50.798;6.430;2023-05-18T05:08:24;101285.06;;;9.06;58.07
19286;BME280;9776;50.798;6.430;2023-05-18T05:10:51;101280.78;;;9.27;57.82
19286;BME280;9776;50.798;6.430;2023-05-18T05:13:18;101290.63;;;9.47;57.58
19286;BME280;9776;50.798;6.430;2023-05-18T05:15:44;101287.63;;;9.74;57.23
19286;BME280;9776;50.798;6.430;2023-05-18T05:18:11;101285.44;;;9.90;57.09
19286;BME280;9776;50.798;6.430;2023-05-18T05:20:38;101291.19;;;10.06;57.04
19286;BME280;9776;50.798;6.430;2023-05-18T05:23:04;101284.22;;;10.27;56.81
19286;BME280;9776;50.798;6.430;2023-05-18T05:25:32;101293.03;;;10.49;56.52
19286;BME280;9776;50.798;6.430;2023-05-18T05:27:59;101291.97;;;10.72;56.32
19286;BME280;9776;50.798;6.430;2023-05-18T05:30:26;101290.31;;;10.92;56.02
19286;BME280;9776;50.798;6.430;2023-05-18T05:32:53;101292.53;;;11.07;55.75
19286;BME280;9776;50.798;6.430;2023-05-18T05:35:20;101289.16;;;11.26;55.57
19286;BME280;9776;50.798;6.430;2023-05-18T05:37:47;101293.47;;;11.48;55.27
19286;BME280;9776;50.798;6.430;2023-05-18T05:40:13;101290.47;;;11.62;55.00
19286;BME280;9776;50.798;6.430;2023-05-18T05:42:42;101292.34;;;11.80;54.82
19286;BME280;9776;50.798;6.430;2023-05-18T05:45:09;101291.59;;;11.99;54.17
19286;BME280;9776;50.798;6.430;2023-05-18T05:47:36;101294.28;;;12.09;54.12
19286;BME280;9776;50.798;6.430;2023-05-18T05:50:03;101294.47;;;12.26;53.46
19286;BME280;9776;50.798;6.430;2023-05-18T05:52:30;101297.13;;;12.45;53.23
19286;BME280;9776;50.798;6.430;2023-05-18T05:54:57;101299.09;;;12.72;52.51
19286;BME280;9776;50.798;6.430;2023-05-18T05:57:24;101298.91;;;12.93;52.28
19286;BME280;9776;50.798;6.430;2023-05-18T05:59:52;101296.84;;;12.96;51.84
19286;BME280;9776;50.798;6.430;2023-05-18T06:02:19;101296.16;;;12.94;51.92
19286;BME280;9776;50.798;6.430;2023-05-18T06:04:45;101300.03;;;13.19;51.45
19286;BME280;9776;50.798;6.430;2023-05-18T06:07:12;101292.75;;;13.40;51.06
19286;BME280;9776;50.798;6.430;2023-05-18T06:09:39;101304.38;;;13.67;50.62
19286;BME280;9776;50.798;6.430;2023-05-18T06:12:06;101295.31;;;13.96;49.89
19286;BME280;9776;50.798;6.430;2023-05-18T06:14:33;101301.13;;;14.27;49.27
19286;BME280;9776;50.798;6.430;2023-05-18T06:17:01;101297.47;;;14.55;48.23
19286;BME280;9776;50.798;6.430;2023-05-18T06:19:28;101302.25;;;14.87;47.37
19286;BME280;9776;50.798;6.430;2023-05-18T06:21:55;101299.00;;;15.19;46.53
19286;BME280;9776;50.798;6.430;2023-05-18T06:24:22;101303.19;;;15.47;45.93
19286;BME280;9776;50.798;6.430;2023-05-18T06:26:49;101300.94;;;15.52;45.82
19286;BME280;9776;50.798;6.430;2023-05-18T06:29:16;101302.97;;;15.58;45.39
19286;BME280;9776;50.798;6.430;2023-05-18T06:31:43;101307.75;;;15.88;44.76
19286;BME280;9776;50.798;6.430;2023-05-18T06:34:11;101320.53;;;16.19;43.94
19286;BME280;9776;50.798;6.430;2023-05-18T06:36:38;101319.91;;;16.41;43.21
19286;BME280;9776;50.798;6.430;2023-05-18T06:39:05;101315.47;;;16.58;42.75
19286;BME280;9776;50.798;6.430;2023-05-18T06:41:32;101318.19;;;16.82;42.15
19286;BME280;9776;50.798;6.430;2023-05-18T06:43:59;101310.16;;;17.06;41.84
19286;BME280;9776;50.798;6.430;2023-05-18T06:46:26;101313.00;;;17.21;41.39
19286;BME280;9776;50.798;6.430;2023-05-18T06:48:53;101307.66;;;17.37;41.21
19286;BME280;9776;50.798;6.430;2023-05-18T06:51:21;101312.47;;;17.57;40.50
19286;BME280;9776;50.798;6.430;2023-05-18T06:53:48;101311.75;;;17.80;40.41
19286;BME280;9776;50.798;6.430;2023-05-18T06:56:15;101313.31;;;18.05;39.88
19286;BME280;9776;50.798;6.430;2023-05-18T06:58:43;101313.69;;;18.25;39.48
19286;BME280;9776;50.798;6.430;2023-05-18T07:01:10;101309.56;;;18.45;39.03
19286;BME280;9776;50.798;6.430;2023-05-18T07:03:37;101303.22;;;18.77;38.59
19286;BME280;9776;50.798;6.430;2023-05-18T07:06:04;101309.78;;;19.11;37.77
19286;BME280;9776;50.798;6.430;2023-05-18T07:08:32;101306.94;;;19.50;36.84
19286;BME280;9776;50.798;6.430;2023-05-18T07:11:01;101311.47;;;19.79;36.35
19286;BME280;9776;50.798;6.430;2023-05-18T07:13:28;101312.69;;;20.12;35.72
19286;BME280;9776;50.798;6.430;2023-05-18T07:15:55;101317.94;;;20.35;35.29
19286;BME280;9776;50.798;6.430;2023-05-18T07:18:22;101315.50;;;20.55;34.70
19286;BME280;9776;50.798;6.430;2023-05-18T07:20:49;101314.28;;;20.78;34.13
19286;BME280;9776;50.798;6.430;2023-05-18T07:23:16;101320.09;;;21.03;33.80
19286;BME280;9776;50.798;6.430;2023-05-18T07:25:44;101313.31;;;21.28;33.16
19286;BME280;9776;50.798;6.430;2023-05-18T07:28:11;101319.03;;;21.53;32.92
19286;BME280;9776;50.798;6.430;2023-05-18T07:30:38;101318.81;;;21.82;32.50
19286;BME280;9776;50.798;6.430;2023-05-18T07:33:05;101312.34;;;22.04;32.22
19286;BME280;9776;50.798;6.430;2023-05-18T07:35:31;101316.97;;;22.24;31.85
19286;BME280;9776;50.798;6.430;2023-05-18T07:37:58;101305.84;;;22.40;31.42
19286;BME280;9776;50.798;6.430;2023-05-18T07:40:25;101305.06;;;22.59;31.29
19286;BME280;9776;50.798;6.430;2023-05-18T07:42:53;101305.78;;;22.94;30.70
19286;BME280;9776;50.798;6.430;2023-05-18T07:45:20;101303.09;;;23.20;30.19
19286;BME280;9776;50.798;6.430;2023-05-18T07:47:48;101304.72;;;23.41;29.81
19286;BME280;9776;50.798;6.430;2023-05-18T07:50:15;101309.09;;;23.48;29.58
19286;BME280;9776;50.798;6.430;2023-05-18T07:52:41;101303.00;;;23.79;29.25
19286;BME280;9776;50.798;6.430;2023-05-18T07:55:08;101299.13;;;24.19;28.48
19286;BME280;9776;50.798;6.430;2023-05-18T07:57:35;101306.41;;;24.57;28.39
19286;BME280;9776;50.798;6.430;2023-05-18T08:00:05;101304.97;;;24.86;27.86
19286;BME280;9776;50.798;6.430;2023-05-18T08:02:34;101302.91;;;24.88;27.90
19286;BME280;9776;50.798;6.430;2023-05-18T08:05:00;101297.22;;;24.96;27.72
19286;BME280;9776;50.798;6.430;2023-05-18T08:07:28;101304.53;;;25.38;27.20
19286;BME280;9776;50.798;6.430;2023-05-18T08:09:55;101294.59;;;25.75;26.68
19286;BME280;9776;50.798;6.430;2023-05-18T08:12:22;101294.53;;;26.00;26.22
19286;BME280;9776;50.798;6.430;2023-05-18T08:14:49;101288.84;;;26.37;25.99
19286;BME280;9776;50.798;6.430;2023-05-18T08:17:17;101285.53;;;26.77;24.92
19286;BME280;9776;50.798;6.430;2023-05-18T08:19:45;101285.63;;;27.12;24.64
19286;BME280;9776;50.798;6.430;2023-05-18T08:22:12;101285.25;;;27.31;23.83
19286;BME280;9776;50.798;6.430;2023-05-18T08:24:39;101283.88;;;27.52;23.45
19286;BME280;9776;50.798;6.430;2023-05-18T08:27:06;101288.28;;;27.93;22.81
19286;BME280;9776;50.798;6.430;2023-05-18T08:29:35;101286.00;;;28.13;22.77
19286;BME280;9776;50.798;6.430;2023-05-18T08:32:04;101283.41;;;28.35;22.57
19286;BME280;9776;50.798;6.430;2023-05-18T08:34:32;101274.53;;;28.67;21.99
19286;BME280;9776;50.798;6.430;2023-05-18T08:36:59;101279.31;;;29.10;21.49
19286;BME280;9776;50.798;6.430;2023-05-18T08:39:26;101281.69;;;29.40;21.35
19286;BME280;9776;50.798;6.430;2023-05-18T08:42:00;101272.22;;;29.81;20.84
19286;BME280;9776;50.798;6.430;2023-05-18T08:44:30;101260.22;;;30.30;20.15
19286;BME280;9776;50.798;6.430;2023-05-18T08:47:02;101270.25;;;30.78;19.48
19286;BME280;9776;50.798;6.430;2023-05-18T08:49:31;101273.34;;;30.92;19.56
19286;BME280;9776;50.798;6.430;2023-05-18T08:52:02;101265.16;;;30.92;19.62
19286;BME280;9776;50.798;6.430;2023-05-18T08:54:30;101265.44;;;31.22;19.47
19286;BME280;9776;50.798;6.430;2023-05-18T08:56:57;101271.19;;;31.78;18.99
19286;BME280;9776;50.798;6.430;2023-05-18T08:59:26;101265.72;;;31.78;18.61
19286;BME280;9776;50.798;6.430;2023-05-18T09:01:57;101268.28;;;31.94;18.71
19286;BME280;9776;50.798;6.430;2023-05-18T09:04:24;101268.22;;;31.89;18.36
19286;BME280;9776;50.798;6.430;2023-05-18T09:06:53;101266.78;;;32.54;17.88
19286;BME280;9776;50.798;6.430;2023-05-18T09:09:24;101265.47;;;33.07;17.45
19286;BME280;9776;50.798;6.430;2023-05-18T09:11:51;101274.88;;;33.75;16.82
19286;BME280;9776;50.798;6.430;2023-05-18T09:14:18;101267.25;;;34.21;16.47
19286;BME280;9776;50.798;6.430;2023-05-18T09:16:47;101258.06;;;33.97;16.46
19286;BME280;9776;50.798;6.430;2023-05-18T09:19:14;101261.72;;;34.26;16.27
19286;BME280;9776;50.798;6.430;2023-05-18T09:21:40;101265.38;;;34.11;15.91
19286;BME280;9776;50.798;6.430;2023-05-18T09:24:11;101259.41;;;33.99;16.29
19286;BME280;9776;50.798;6.430;2023-05-18T09:26:38;101246.78;;;34.47;15.96
19286;BME280;9776;50.798;6.430;2023-05-18T09:29:14;101257.31;;;35.03;15.51
19286;BME280;9776;50.798;6.430;2023-05-18T09:31:41;101259.50;;;35.53;15.10
19286;BME280;9776;50.798;6.430;2023-05-18T09:34:08;101252.66;;;35.98;14.62
19286;BME280;9776;50.798;6.430;2023-05-18T09:36:35;101250.75;;;36.17;14.80
19286;BME280;9776;50.798;6.430;2023-05-18T09:39:06;101245.81;;;34.67;15.50
19286;BME280;9776;50.798;6.430;2023-05-18T09:41:36;101245.84;;;34.23;15.98
19286;BME280;9776;50.798;6.430;2023-05-18T09:44:03;101245.50;;;35.31;14.99
19286;BME280;9776;50.798;6.430;2023-05-18T09:46:34;101251.25;;;36.01;14.45
19286;BME280;9776;50.798;6.430;2023-05-18T09:49:02;101252.19;;;36.66;13.88
19286;BME280;9776;50.798;6.430;2023-05-18T09:51:30;101257.84;;;37.20;13.73
19286;BME280;9776;50.798;6.430;2023-05-18T09:53:58;101249.09;;;37.86;13.17
19286;BME280;9776;50.798;6.430;2023-05-18T09:56:25;101244.66;;;38.13;12.93
19286;BME280;9776;50.798;6.430;2023-05-18T09:58:53;101241.78;;;38.18;13.11
19286;BME280;9776;50.798;6.430;2023-05-18T10:01:20;101243.19;;;38.51;12.88
19286;BME280;9776;50.798;6.430;2023-05-18T10:03:47;101247.75;;;39.31;12.36
19286;BME280;9776;50.798;6.430;2023-05-18T10:06:14;101238.84;;;40.07;11.93
19286;BME280;9776;50.798;6.430;2023-05-18T10:08:44;101229.69;;;40.67;11.46
19286;BME280;9776;50.798;6.430;2023-05-18T10:11:11;101243.84;;;41.29;11.14
19286;BME280;9776;50.798;6.430;2023-05-18T10:13:38;101231.81;;;41.54;10.98
19286;BME280;9776;50.798;6.430;2023-05-18T10:16:09;101235.25;;;41.80;10.65
19286;BME280;9776;50.798;6.430;2023-05-18T10:18:37;101214.31;;;41.42;11.08
19286;BME280;9776;50.798;6.430;2023-05-18T10:21:05;101206.50;;;39.03;12.29
19286;BME280;9776;50.798;6.430;2023-05-18T10:23:33;101216.34;;;38.43;12.34
19286;BME280;9776;50.798;6.430;2023-05-18T10:26:04;101217.66;;;37.74;12.79
19286;BME280;9776;50.798;6.430;2023-05-18T10:28:37;101217.56;;;37.38;13.00
19286;BME280;9776;50.798;6.430;2023-05-18T10:31:07;101213.06;;;39.16;12.29
19286;BME280;9776;50.798;6.430;2023-05-18T10:33:36;101217.16;;;40.52;11.39
19286;BME280;9776;50.798;6.430;2023-05-18T10:36:04;101217.41;;;41.31;10.87
19286;BME280;9776;50.798;6.430;2023-05-18T10:38:32;101213.00;;;41.01;10.83
19286;BME280;9776;50.798;6.430;2023-05-18T10:41:00;101207.94;;;38.70;12.34
19286;BME280;9776;50.798;6.430;2023-05-18T10:43:27;101200.38;;;36.22;13.67
19286;BME280;9776;50.798;6.430;2023-05-18T10:45:55;101209.16;;;36.88;13.00
19286;BME280;9776;50.798;6.430;2023-05-18T10:48:22;101200.56;;;35.22;14.19
19286;BME280;9776;50.798;6.430;2023-05-18T10:50:52;101196.34;;;34.43;14.67
19286;BME280;9776;50.798;6.430;2023-05-18T10:53:20;101190.97;;;34.96;14.26
19286;BME280;9776;50.798;6.430;2023-05-18T10:55:48;101199.63;;;37.00;13.22
19286;BME280;9776;50.798;6.430;2023-05-18T10:58:18;101199.81;;;38.96;11.78
19286;BME280;9776;50.798;6.430;2023-05-18T11:00:47;101197.31;;;40.50;11.25
19286;BME280;9776;50.798;6.430;2023-05-18T11:03:17;101195.25;;;40.94;10.96
19286;BME280;9776;50.798;6.430;2023-05-18T11:05:48;101196.03;;;41.91;10.16
19286;BME280;9776;50.798;6.430;2023-05-18T11:08:25;101191.19;;;42.86;9.91
19286;BME280;9776;50.798;6.430;2023-05-18T11:11:01;101186.56;;;43.63;9.26
19286;BME280;9776;50.798;6.430;2023-05-18T11:13:29;101182.31;;;43.93;9.37
19286;BME280;9776;50.798;6.430;2023-05-18T11:16:07;101181.53;;;44.20;9.14
19286;BME280;9776;50.798;6.430;2023-05-18T11:18:36;101173.19;;;42.26;10.01
19286;BME280;9776;50.798;6.430;2023-05-18T11:21:17;101169.06;;;41.79;9.96
19286;BME280;9776;50.798;6.430;2023-05-18T11:24:12;101164.75;;;41.61;10.12
19286;BME280;9776;50.798;6.430;2023-05-18T11:26:41;101162.63;;;42.98;9.57
19286;BME280;9776;50.798;6.430;2023-05-18T11:29:22;101161.94;;;43.89;9.25
19286;BME280;9776;50.798;6.430;2023-05-18T11:31:51;101169.31;;;43.57;8.81
19286;BME280;9776;50.798;6.430;2023-05-18T11:34:41;101162.06;;;44.08;8.49
19286;BME280;9776;50.798;6.430;2023-05-18T11:37:10;101163.66;;;43.41;8.48
19286;BME280;9776;50.798;6.430;2023-05-18T11:39:39;101159.53;;;42.54;9.38
19286;BME280;9776;50.798;6.430;2023-05-18T11:42:07;101161.22;;;43.40;9.01
19286;BME280;9776;50.798;6.430;2023-05-18T11:44:35;101150.41;;;44.30;8.63
19286;BME280;9776;50.798;6.430;2023-05-18T11:47:07;101153.81;;;43.20;9.18
19286;BME280;9776;50.798;6.430;2023-05-18T11:49:37;101147.34;;;40.30;10.81
19286;BME280;9776;50.798;6.430;2023-05-18T11:52:12;101149.34;;;37.21;12.37
19286;BME280;9776;50.798;6.430;2023-05-18T11:54:44;101154.44;;;35.85;13.41
19286;BME280;9776;50.798;6.430;2023-05-18T11:57:13;101143.59;;;35.14;13.61
19286;BME280;9776;50.798;6.430;2023-05-18T11:59:41;101140.72;;;34.09;14.17
19286;BME280;9776;50.798;6.430;2023-05-18T12:02:09;101141.00;;;33.63;14.80
19286;BME280;9776;50.798;6.430;2023-05-18T12:04:44;101143.16;;;35.25;13.47
19286;BME280;9776;50.798;6.430;2023-05-18T12:07:12;101140.59;;;37.06;12.66
19286;BME280;9776;50.798;6.430;2023-05-18T12:09:41;101133.22;;;38.14;11.93
19286;BME280;9776;50.798;6.430;2023-05-18T12:12:10;101136.25;;;39.27;11.42
19286;BME280;9776;50.798;6.430;2023-05-18T12:14:39;101134.38;;;39.70;11.17
19286;BME280;9776;50.798;6.430;2023-05-18T12:17:06;101128.19;;;39.90;10.86
19286;BME280;9776;50.798;6.430;2023-05-18T12:19:41;101117.31;;;39.85;10.82
19286;BME280;9776;50.798;6.430;2023-05-18T12:22:08;101128.84;;;40.04;10.77
19286;BME280;9776;50.798;6.430;2023-05-18T12:24:36;101119.69;;;39.44;11.16
19286;BME280;9776;50.798;6.430;2023-05-18T12:27:07;101118.88;;;38.78;11.54
19286;BME280;9776;50.798;6.430;2023-05-18T12:29:37;101118.72;;;37.50;12.36
19286;BME280;9776;50.798;6.430;2023-05-18T12:32:07;101125.50;;;35.74;13.39
19286;BME280;9776;50.798;6.430;2023-05-18T12:34:35;101108.19;;;33.97;14.43
19286;BME280;9776;50.798;6.430;2023-05-18T12:37:03;101109.03;;;32.80;15.09
19286;BME280;9776;50.798;6.430;2023-05-18T12:39:31;101100.53;;;31.70;16.13
19286;BME280;9776;50.798;6.430;2023-05-18T12:42:10;101103.81;;;30.95;16.62
19286;BME280;9776;50.798;6.430;2023-05-18T12:44:37;101105.06;;;30.41;17.39
19286;BME280;9776;50.798;6.430;2023-05-18T12:47:04;101106.78;;;29.88;17.42
19286;BME280;9776;50.798;6.430;2023-05-18T12:49:35;101106.13;;;29.54;17.67
19286;BME280;9776;50.798;6.430;2023-05-18T12:52:07;101096.59;;;29.08;17.91
19286;BME280;9776;50.798;6.430;2023-05-18T12:54:35;101097.44;;;28.70;18.61
19286;BME280;9776;50.798;6.430;2023-05-18T12:57:04;101101.22;;;28.53;18.67
19286;BME280;9776;50.798;6.430;2023-05-18T12:59:33;101106.25;;;28.44;18.96
19286;BME280;9776;50.798;6.430;2023-05-18T13:02:00;101112.00;;;28.31;18.75
19286;BME280;9776;50.798;6.430;2023-05-18T13:04:32;101108.38;;;28.09;19.14
19286;BME280;9776;50.798;6.430;2023-05-18T13:06:59;101102.06;;;27.92;19.58
19286;BME280;9776;50.798;6.430;2023-05-18T13:09:26;101103.66;;;27.88;19.59
19286;BME280;9776;50.798;6.430;2023-05-18T13:11:58;101093.16;;;27.80;19.88